createdAt,value
2023-05-16T00:02:42.605Z,7.58
2023-05-16T00:08:06.466Z,10.90
2023-05-16T00:13:29.927Z,10.82
2023-05-16T00:18:52.883Z,11.00
2023-05-16T00:24:17.220Z,9.73
2023-05-16T00:29:39.543Z,10.88
2023-05-16T00:35:01.864Z,7.80
2023-05-16T00:40:24.950Z,9.90
2023-05-16T00:45:47.949Z,6.87
2023-05-16T00:51:10.737Z,7.62
2023-05-16T00:56:33.840Z,8.98
2023-05-16T01:01:58.889Z,8.70
2023-05-16T01:07:22.478Z,10.90
2023-05-16T01:13:19.674Z,8.63
2023-05-16T01:18:55.703Z,5.58
2023-05-16T01:24:32.130Z,7.28
2023-05-16T01:29:54.455Z,6.42
2023-05-16T01:35:18.032Z,6.37
2023-05-16T01:40:45.307Z,7.85
2023-05-16T01:46:12.557Z,7.40
2023-05-16T01:51:55.101Z,7.80
2023-05-16T01:57:21.078Z,7.20
2023-05-16T02:02:44.120Z,6.57
2023-05-16T02:08:07.333Z,6.60
2023-05-16T02:13:30.216Z,7.93
2023-05-16T02:18:52.579Z,7.60
2023-05-16T02:24:14.917Z,8.60
2023-05-16T02:29:37.314Z,4.83
2023-05-16T02:34:59.652Z,6.90
2023-05-16T02:46:47.076Z,5.93
2023-05-16T02:52:09.913Z,3.40
2023-05-16T02:57:32.345Z,3.80
2023-05-16T03:02:54.756Z,3.00
2023-05-16T03:08:17.573Z,2.98
2023-05-16T03:13:39.856Z,3.58
2023-05-16T03:19:03.556Z,2.72
2023-05-16T03:24:26.536Z,3.87
2023-05-16T03:29:49.079Z,3.70
2023-05-16T03:35:12.306Z,3.15
2023-05-16T03:40:34.576Z,2.07
2023-05-16T03:45:56.966Z,5.00
2023-05-16T03:51:19.316Z,4.00
2023-05-16T03:56:42.221Z,3.90
2023-05-16T04:02:04.620Z,3.05
2023-05-16T04:07:27.785Z,2.80
2023-05-16T04:12:50.477Z,4.37
2023-05-16T04:18:12.865Z,3.15
2023-05-16T04:23:35.773Z,2.50
2023-05-16T04:29:00.135Z,4.03
2023-05-16T04:34:24.486Z,2.00
2023-05-16T04:39:48.727Z,2.40
2023-05-16T04:45:12.300Z,1.97
2023-05-16T04:50:34.853Z,2.17
2023-05-16T04:55:57.182Z,1.75
2023-05-16T05:01:19.491Z,1.97
2023-05-16T05:06:41.870Z,2.02
2023-05-16T05:12:04.311Z,4.40
2023-05-16T05:17:27.228Z,3.52
2023-05-16T05:22:49.874Z,2.45
2023-05-16T05:28:12.180Z,2.58
2023-05-16T05:33:37.778Z,6.10
2023-05-16T05:39:00.064Z,3.47
2023-05-16T05:44:22.414Z,3.63
2023-05-16T05:49:45.849Z,3.60
2023-05-16T05:55:08.208Z,2.80
2023-05-16T06:00:31.243Z,4.05
2023-05-16T06:05:53.483Z,3.77
2023-05-16T06:11:15.838Z,4.63
2023-05-16T06:16:40.715Z,2.40
2023-05-16T06:22:03.487Z,3.42
2023-05-16T06:27:25.958Z,8.87
2023-05-16T06:32:48.473Z,6.37
2023-05-16T06:38:10.810Z,6.83
2023-05-16T06:43:33.093Z,3.85
2023-05-16T06:48:55.467Z,3.98
2023-05-16T06:54:17.776Z,3.10
2023-05-16T06:59:40.231Z,3.92
2023-05-16T07:05:02.982Z,4.00
2023-05-16T07:10:26.196Z,6.30
2023-05-16T07:15:48.539Z,4.78
2023-05-16T07:21:11.908Z,5.37
2023-05-16T07:26:34.794Z,7.77
2023-05-16T07:31:57.589Z,4.40
2023-05-16T07:37:21.112Z,5.47
2023-05-16T07:42:44.861Z,6.27
2023-05-16T07:48:07.578Z,4.95
2023-05-16T07:53:29.909Z,4.50
2023-05-16T07:58:52.608Z,5.70
2023-05-16T08:04:15.611Z,4.22
2023-05-16T08:09:38.127Z,4.03
2023-05-16T08:15:01.412Z,7.97
2023-05-16T08:20:24.359Z,4.63
2023-05-16T08:25:46.848Z,5.05
2023-05-16T08:31:09.202Z,3.97
2023-05-16T08:36:32.429Z,4.40
2023-05-16T08:41:54.814Z,8.05
2023-05-16T08:47:26.333Z,3.08
2023-05-16T08:52:51.718Z,4.73
2023-05-16T08:58:15.007Z,5.62
2023-05-16T09:03:37.530Z,3.17
2023-05-16T09:09:01.332Z,6.10
2023-05-16T09:14:23.974Z,4.37
2023-05-16T09:19:53.751Z,3.77
2023-05-16T09:25:28.659Z,3.00
2023-05-16T09:30:51.122Z,3.93
2023-05-16T09:36:17.333Z,3.17
2023-05-16T09:41:41.919Z,3.08
2023-05-16T09:47:05.892Z,2.70
2023-05-16T09:52:29.281Z,4.33
2023-05-16T09:57:52.240Z,4.97
2023-05-16T10:03:16.435Z,4.15
2023-05-16T10:08:44.682Z,3.22
2023-05-16T10:14:09.405Z,2.72
2023-05-16T10:19:34.154Z,3.90
2023-05-16T10:25:04.258Z,2.97
2023-05-16T10:30:28.394Z,3.75
2023-05-16T10:35:51.619Z,3.17
2023-05-16T10:41:15.120Z,2.97
2023-05-16T10:46:39.423Z,4.50
2023-05-16T10:52:20.318Z,2.77
2023-05-16T10:57:44.531Z,3.20
2023-05-16T11:03:12.069Z,7.33
2023-05-16T11:08:34.567Z,4.35
2023-05-16T11:14:10.947Z,2.45
2023-05-16T11:25:34.959Z,2.77
2023-05-16T11:31:04.344Z,3.30
2023-05-16T11:36:28.923Z,6.10
2023-05-16T11:41:53.186Z,4.27
2023-05-16T11:47:16.527Z,2.83
2023-05-16T11:52:39.030Z,5.83
2023-05-16T11:58:05.186Z,4.97
2023-05-16T12:03:29.251Z,3.00
2023-05-16T12:08:57.774Z,3.03
2023-05-16T12:14:21.860Z,4.43
2023-05-16T12:19:46.013Z,3.25
2023-05-16T12:25:28.341Z,3.33
2023-05-16T12:30:53.546Z,3.17
2023-05-16T12:36:19.970Z,6.87
2023-05-16T12:41:45.360Z,4.60
2023-05-16T12:47:11.175Z,4.50
2023-05-16T12:52:38.132Z,5.60
2023-05-16T12:58:02.843Z,3.90
2023-05-16T13:03:26.599Z,5.97
2023-05-16T13:08:49.437Z,5.05
2023-05-16T13:14:12.257Z,4.35
2023-05-16T13:19:35.337Z,9.13
2023-05-16T13:24:57.640Z,9.70
2023-05-16T13:30:20.524Z,12.13
2023-05-16T13:35:42.863Z,6.53
2023-05-16T13:41:06.553Z,8.13
2023-05-16T13:46:29.593Z,10.33
2023-05-16T13:51:52.454Z,9.20
2023-05-16T13:57:15.181Z,6.73
2023-05-16T14:02:38.247Z,11.63
2023-05-16T14:08:01.401Z,8.30
2023-05-16T14:13:24.491Z,10.67
2023-05-16T14:18:47.498Z,6.83
2023-05-16T14:24:12.322Z,7.67
2023-05-16T14:29:38.809Z,7.15
2023-05-16T14:35:01.224Z,9.33
2023-05-16T14:40:24.793Z,7.25
2023-05-16T14:45:51.984Z,7.60
2023-05-16T14:51:14.829Z,7.75
2023-05-16T14:56:37.751Z,8.18
2023-05-16T15:02:00.259Z,8.50
2023-05-16T15:07:23.325Z,9.45
2023-05-16T15:12:46.058Z,8.85
2023-05-16T15:18:09.387Z,10.75
2023-05-16T15:23:31.964Z,10.00
2023-05-16T15:28:55.940Z,9.83
2023-05-16T15:34:18.296Z,11.47
2023-05-16T15:39:40.664Z,12.58
2023-05-16T15:45:03.370Z,12.53
2023-05-16T15:50:27.392Z,13.17
2023-05-16T15:55:49.744Z,13.03
2023-05-16T16:01:12.789Z,12.73
2023-05-16T16:06:35.755Z,12.58
2023-05-16T16:11:58.354Z,15.50
2023-05-16T16:17:21.517Z,13.72
2023-05-16T16:22:44.469Z,14.58
2023-05-16T16:28:08.000Z,12.43
2023-05-16T16:33:31.617Z,11.78
2023-05-16T16:38:54.432Z,12.07
2023-05-16T16:44:17.343Z,11.97
2023-05-16T16:49:41.156Z,13.65
2023-05-16T16:55:04.552Z,12.58
2023-05-16T17:00:28.479Z,11.12
2023-05-16T17:05:51.366Z,13.43
2023-05-16T17:11:14.904Z,11.63
2023-05-16T17:16:38.720Z,14.40
2023-05-16T17:22:01.477Z,9.35
2023-05-16T17:27:24.760Z,9.43
2023-05-16T17:32:47.964Z,9.78
2023-05-16T17:38:11.837Z,12.68
2023-05-16T17:43:35.951Z,11.57
2023-05-16T17:48:58.616Z,12.30
2023-05-16T17:54:21.414Z,13.57
2023-05-16T17:59:45.487Z,14.35
2023-05-16T18:05:08.145Z,12.28
2023-05-16T18:10:40.184Z,15.45
2023-05-16T18:15:55.294Z,19.07
2023-05-16T18:21:17.979Z,13.48
2023-05-16T18:26:41.046Z,17.67
2023-05-16T18:32:03.944Z,16.55
2023-05-16T18:37:27.233Z,10.70
2023-05-16T18:42:50.383Z,18.10
2023-05-16T18:48:13.402Z,12.33
2023-05-16T18:53:36.937Z,14.47
2023-05-16T18:58:59.745Z,13.15
2023-05-16T19:04:22.814Z,17.32
2023-05-16T19:09:47.329Z,14.10
2023-05-16T19:15:10.051Z,12.40
2023-05-16T19:20:32.457Z,14.87
2023-05-16T19:25:54.920Z,14.87
2023-05-16T19:31:18.368Z,13.50
2023-05-16T19:36:41.041Z,11.20
2023-05-16T19:42:07.359Z,12.73
2023-05-16T19:47:28.688Z,13.40
2023-05-16T19:52:51.740Z,13.38
2023-05-16T19:58:14.632Z,16.13
2023-05-16T20:03:37.174Z,14.20
2023-05-16T20:08:59.632Z,14.37
2023-05-16T20:14:21.958Z,12.57
2023-05-16T20:24:59.639Z,10.87
2023-05-16T20:30:23.056Z,12.87
2023-05-16T20:35:45.431Z,13.23
2023-05-16T20:41:07.833Z,16.40
2023-05-16T20:46:30.182Z,13.23
2023-05-16T20:51:53.306Z,12.47
2023-05-16T20:57:17.160Z,13.78
2023-05-16T21:02:39.884Z,17.53
2023-05-16T21:08:02.536Z,11.13
2023-05-16T21:13:25.439Z,14.63
2023-05-16T21:18:48.947Z,10.70
2023-05-16T21:24:11.723Z,13.10
2023-05-16T21:29:34.294Z,12.17
2023-05-16T21:34:56.651Z,9.90
2023-05-16T21:40:21.711Z,9.33
2023-05-16T21:45:44.028Z,13.93
2023-05-16T21:51:06.334Z,16.90
2023-05-16T21:56:28.780Z,17.55
2023-05-16T22:01:51.367Z,12.40
2023-05-16T22:07:13.828Z,10.05
2023-05-16T22:12:36.412Z,14.73
2023-05-16T22:17:58.814Z,14.70
2023-05-16T22:23:21.221Z,8.70
2023-05-16T22:28:43.529Z,10.27
2023-05-16T22:34:05.990Z,11.80
2023-05-16T22:39:28.319Z,10.10
2023-05-16T22:44:50.845Z,12.60
2023-05-16T22:50:13.425Z,14.93
2023-05-16T22:55:36.488Z,12.50
2023-05-16T23:00:59.970Z,15.10
2023-05-16T23:06:22.440Z,16.73
2023-05-16T23:11:45.298Z,10.83
2023-05-16T23:17:07.641Z,14.80
2023-05-16T23:22:29.983Z,14.87
2023-05-16T23:27:52.338Z,12.28
2023-05-16T23:33:14.801Z,14.77
2023-05-16T23:38:37.411Z,17.48
2023-05-16T23:43:59.695Z,11.73
2023-05-16T23:49:22.006Z,14.75
2023-05-16T23:54:48.085Z,12.47
